createdAt,value
2023-01-12T00:00:02.274Z,18.93
2023-01-12T00:02:42.742Z,19.05
2023-01-12T00:05:15.043Z,19.06
2023-01-12T00:07:46.397Z,18.98
2023-01-12T00:10:17.927Z,19.08
2023-01-12T00:12:48.645Z,19.40
2023-01-12T00:15:39.334Z,19.28
2023-01-12T00:18:10.784Z,19.42
2023-01-12T00:20:42.126Z,19.57
2023-01-12T00:23:13.847Z,19.81
2023-01-12T00:25:45.156Z,19.69
2023-01-12T00:28:16.108Z,19.85
2023-01-12T00:30:47.398Z,19.79
2023-01-12T00:33:18.525Z,19.70
2023-01-12T00:35:49.485Z,19.82
2023-01-12T00:38:20.399Z,19.91
2023-01-12T00:40:51.218Z,19.86
2023-01-12T00:43:40.287Z,19.92
2023-01-12T00:46:11.277Z,19.97
2023-01-12T00:48:42.304Z,19.88
2023-01-12T00:51:13.942Z,20.03
2023-01-12T00:53:44.335Z,20.23
2023-01-12T00:56:15.237Z,20.25
2023-01-12T00:58:50.383Z,20.17
2023-01-12T01:01:22.058Z,20.32
2023-01-12T01:03:53.148Z,20.23
2023-01-12T01:06:24.491Z,20.23
2023-01-12T01:08:55.906Z,20.45
2023-01-12T01:11:26.682Z,20.68
2023-01-12T01:13:57.726Z,20.74
2023-01-12T01:16:29.182Z,20.70
2023-01-12T01:19:01.134Z,20.32
2023-01-12T01:21:32.197Z,20.60
2023-01-12T01:24:03.494Z,20.56
2023-01-12T01:26:34.963Z,20.13
2023-01-12T01:29:06.160Z,20.31
2023-01-12T01:31:37.704Z,20.63
2023-01-12T01:34:09.280Z,20.82
2023-01-12T01:36:40.522Z,20.89
2023-01-12T01:39:11.497Z,20.75
2023-01-12T01:41:43.590Z,20.59
2023-01-12T01:44:33.188Z,20.90
2023-01-12T01:47:16.793Z,20.89
2023-01-12T01:49:53.081Z,21.05
2023-01-12T01:52:37.016Z,21.12
2023-01-12T01:55:21.695Z,20.99
2023-01-12T01:58:12.730Z,20.80
2023-01-12T02:00:45.079Z,21.10
2023-01-12T02:03:17.912Z,20.92
2023-01-12T02:05:53.704Z,20.89
2023-01-12T02:08:23.960Z,20.77
2023-01-12T02:10:55.539Z,20.97
2023-01-12T02:13:47.637Z,21.03
2023-01-12T02:16:29.334Z,20.92
2023-01-12T02:19:30.844Z,21.13
2023-01-12T02:22:36.683Z,21.21
2023-01-12T02:25:23.503Z,21.13
2023-01-12T02:28:18.517Z,21.03
2023-01-12T02:31:26.282Z,21.08
2023-01-12T02:34:06.505Z,21.19
2023-01-12T02:36:40.853Z,21.02
2023-01-12T02:39:34.884Z,20.96
2023-01-12T02:42:44.074Z,21.11
2023-01-12T02:45:27.295Z,21.15
2023-01-12T02:48:27.314Z,21.05
2023-01-12T02:51:12.397Z,21.23
2023-01-12T02:53:53.937Z,21.23
2023-01-12T02:56:40.182Z,20.95
2023-01-12T02:59:16.344Z,21.01
2023-01-12T03:01:49.967Z,21.09
2023-01-12T03:04:22.278Z,21.21
2023-01-12T03:06:58.309Z,21.21
2023-01-12T03:09:48.877Z,21.37
2023-01-12T03:12:24.428Z,21.40
2023-01-12T03:14:56.259Z,21.21
2023-01-12T03:17:35.676Z,21.34
2023-01-12T03:20:13.215Z,21.28
2023-01-12T03:22:44.689Z,21.34
2023-01-12T03:25:19.072Z,21.37
2023-01-12T03:27:56.450Z,21.33
2023-01-12T03:30:42.252Z,21.51
2023-01-12T03:33:14.412Z,21.57
2023-01-12T03:36:03.084Z,21.73
2023-01-12T03:38:54.545Z,21.68
2023-01-12T03:41:34.475Z,21.22
2023-01-12T03:44:08.033Z,21.55
2023-01-12T03:46:44.619Z,21.77
2023-01-12T03:49:28.022Z,21.78
2023-01-12T03:52:00.549Z,22.12
2023-01-12T03:54:32.433Z,22.21
2023-01-12T03:57:04.164Z,22.09
2023-01-12T03:59:35.654Z,22.03
2023-01-12T04:02:06.874Z,21.93
2023-01-12T04:04:38.641Z,22.15
2023-01-12T04:07:09.618Z,22.32
2023-01-12T04:09:40.831Z,21.82
2023-01-12T04:12:14.696Z,21.77
2023-01-12T04:14:48.262Z,21.48
2023-01-12T04:17:19.387Z,21.53
2023-01-12T04:19:50.501Z,21.27
2023-01-12T04:22:39.927Z,21.37
2023-01-12T04:25:12.475Z,21.04
2023-01-12T04:27:47.411Z,21.12
2023-01-12T04:30:21.595Z,21.14
2023-01-12T04:32:53.893Z,20.88
2023-01-12T04:35:25.965Z,21.10
2023-01-12T04:37:56.388Z,20.86
2023-01-12T04:40:27.672Z,20.88
2023-01-12T04:43:12.513Z,21.13
2023-01-12T04:45:45.111Z,21.01
2023-01-12T04:48:18.007Z,20.60
2023-01-12T04:50:51.249Z,20.64
2023-01-12T04:53:23.454Z,20.61
2023-01-12T04:55:54.628Z,20.89
2023-01-12T04:58:26.310Z,20.92
2023-01-12T05:00:57.454Z,21.02
2023-01-12T05:03:30.375Z,20.91
2023-01-12T05:06:04.381Z,21.07
2023-01-12T05:08:53.213Z,20.90
2023-01-12T05:11:29.884Z,20.88
2023-01-12T05:14:01.074Z,20.72
2023-01-12T05:16:32.288Z,20.61
2023-01-12T05:19:03.232Z,20.48
2023-01-12T05:21:34.295Z,20.64
2023-01-12T05:24:05.322Z,20.71
2023-01-12T05:26:36.541Z,20.49
2023-01-12T05:29:07.712Z,20.48
2023-01-12T05:31:38.864Z,20.72
2023-01-12T05:34:09.805Z,20.64
2023-01-12T05:36:41.338Z,20.53
2023-01-12T05:39:12.372Z,20.25
2023-01-12T05:42:01.613Z,20.16
2023-01-12T05:44:32.867Z,20.52
2023-01-12T05:47:04.306Z,20.49
2023-01-12T05:49:35.436Z,20.44
2023-01-12T05:52:06.602Z,20.46
2023-01-12T05:54:37.360Z,20.50
2023-01-12T05:57:08.216Z,20.43
2023-01-12T05:59:39.112Z,20.51
2023-01-12T06:02:13.742Z,20.50
2023-01-12T06:04:45.936Z,20.49
2023-01-12T06:07:18.693Z,20.45
2023-01-12T06:09:50.247Z,20.52
2023-01-12T06:12:39.192Z,20.35
2023-01-12T06:15:10.612Z,20.39
2023-01-12T06:17:41.285Z,20.34
2023-01-12T06:20:16.313Z,20.26
2023-01-12T06:22:48.357Z,20.23
2023-01-12T06:25:19.602Z,20.29
2023-01-12T06:27:50.749Z,20.31
2023-01-12T06:30:21.664Z,20.26
2023-01-12T06:32:52.752Z,20.14
2023-01-12T06:35:23.843Z,20.11
2023-01-12T06:37:58.891Z,20.03
2023-01-12T06:40:30.223Z,20.16
2023-01-12T06:43:01.218Z,20.17
2023-01-12T06:45:32.537Z,20.00
2023-01-12T06:48:03.680Z,20.09
2023-01-12T06:50:35.530Z,19.85
2023-01-12T06:53:06.588Z,19.83
2023-01-12T06:55:37.503Z,20.01
2023-01-12T06:58:08.970Z,19.96
2023-01-12T07:00:39.930Z,19.89
2023-01-12T07:03:19.033Z,19.76
2023-01-12T07:05:50.471Z,19.73
2023-01-12T07:08:22.354Z,19.58
2023-01-12T07:10:53.499Z,19.62
2023-01-12T07:13:24.887Z,19.78
2023-01-12T07:15:56.259Z,19.79
2023-01-12T07:18:28.203Z,19.82
2023-01-12T07:21:01.754Z,19.72
2023-01-12T07:23:32.922Z,19.79
2023-01-12T07:26:04.363Z,19.74
2023-01-12T07:28:35.830Z,19.74
2023-01-12T07:31:07.047Z,19.71
2023-01-12T07:33:39.319Z,19.71
2023-01-12T07:36:10.569Z,19.68
2023-01-12T07:38:43.550Z,19.67
2023-01-12T07:41:34.517Z,19.64
2023-01-12T07:44:11.948Z,19.68
2023-01-12T07:46:42.784Z,19.67
2023-01-12T07:49:13.732Z,19.64
2023-01-12T07:51:44.585Z,19.56
2023-01-12T07:54:15.500Z,19.62
2023-01-12T07:56:46.573Z,19.61
2023-01-12T07:59:17.605Z,19.55
2023-01-12T08:01:49.181Z,19.25
2023-01-12T08:04:20.217Z,19.10
2023-01-12T08:06:50.992Z,19.10
2023-01-12T08:09:23.109Z,19.11
2023-01-12T08:11:54.103Z,19.04
2023-01-12T08:14:36.162Z,19.01
2023-01-12T08:17:08.652Z,18.86
2023-01-12T08:19:44.558Z,18.86
2023-01-12T08:22:18.739Z,18.91
2023-01-12T08:24:57.627Z,18.80
2023-01-12T08:27:31.787Z,18.77
2023-01-12T08:30:05.812Z,18.70
2023-01-12T08:32:38.025Z,18.84
2023-01-12T08:35:09.338Z,18.82
2023-01-12T08:37:40.608Z,18.74
2023-01-12T08:40:12.527Z,18.68
2023-01-12T08:42:43.618Z,18.64
2023-01-12T08:45:14.627Z,18.64
2023-01-12T08:47:46.713Z,18.59
2023-01-12T08:50:17.731Z,18.59
2023-01-12T08:52:48.600Z,18.56
2023-01-12T08:55:19.800Z,18.53
2023-01-12T08:57:50.876Z,18.59
2023-01-12T09:00:23.950Z,18.48
2023-01-12T09:02:55.257Z,18.52
2023-01-12T09:05:26.277Z,18.43
2023-01-12T09:07:57.367Z,18.37
2023-01-12T09:10:28.421Z,18.36
2023-01-12T09:12:59.380Z,18.40
2023-01-12T09:15:30.704Z,18.39
2023-01-12T09:18:01.723Z,18.30
2023-01-12T09:20:32.625Z,18.29
2023-01-12T09:23:06.314Z,18.31
2023-01-12T09:25:37.476Z,18.40
2023-01-12T09:28:08.696Z,18.28
2023-01-12T09:30:39.593Z,18.24
2023-01-12T09:33:10.550Z,18.30
2023-01-12T09:35:41.581Z,18.26
2023-01-12T09:38:13.445Z,18.22
2023-01-12T09:40:47.445Z,18.26
2023-01-12T09:43:36.417Z,18.29
2023-01-12T09:46:25.755Z,18.14
2023-01-12T09:48:56.671Z,18.17
2023-01-12T09:51:33.536Z,18.14
2023-01-12T09:54:07.042Z,18.21
2023-01-12T09:56:43.016Z,18.24
2023-01-12T09:59:26.775Z,18.23
2023-01-12T10:01:58.985Z,18.17
2023-01-12T10:04:30.057Z,18.22
2023-01-12T10:07:01.451Z,18.16
2023-01-12T10:09:33.497Z,18.19
2023-01-12T10:12:07.828Z,18.21
2023-01-12T10:14:59.373Z,18.19
2023-01-12T10:17:50.833Z,18.12
2023-01-12T10:20:24.677Z,18.14
2023-01-12T10:23:02.993Z,18.12
2023-01-12T10:25:55.389Z,18.12
2023-01-12T10:28:35.009Z,18.19
2023-01-12T10:31:06.887Z,18.12
2023-01-12T10:33:37.984Z,18.08
2023-01-12T10:36:12.889Z,18.16
2023-01-12T10:39:27.868Z,18.14
2023-01-12T10:42:38.212Z,18.03
2023-01-12T10:45:18.355Z,18.08
2023-01-12T10:47:50.727Z,18.06
2023-01-12T10:50:24.809Z,17.99
2023-01-12T10:53:03.545Z,17.96
2023-01-12T10:55:37.060Z,17.95
2023-01-12T10:58:19.105Z,17.89
2023-01-12T11:00:51.391Z,17.95
2023-01-12T11:03:48.734Z,18.01
2023-01-12T11:06:27.684Z,17.96
2023-01-12T11:08:59.451Z,17.90
2023-01-12T11:11:33.537Z,17.83
2023-01-12T11:14:06.498Z,17.88
2023-01-12T11:16:43.459Z,17.91
2023-01-12T11:19:32.262Z,17.86
2023-01-12T11:22:09.501Z,17.73
2023-01-12T11:24:45.248Z,17.86
2023-01-12T11:27:22.815Z,17.80
2023-01-12T11:30:23.191Z,17.76
2023-01-12T11:33:10.208Z,17.66
2023-01-12T11:35:52.524Z,17.71
2023-01-12T11:38:26.591Z,17.78
2023-01-12T11:40:59.932Z,17.76
2023-01-12T11:43:57.310Z,17.79
2023-01-12T11:46:36.161Z,17.75
2023-01-12T11:49:30.039Z,17.79
2023-01-12T11:52:02.286Z,17.69
2023-01-12T11:54:36.188Z,17.70
2023-01-12T11:58:22.890Z,17.68
2023-01-12T12:01:08.638Z,17.68
2023-01-12T12:03:43.064Z,17.68
2023-01-12T12:06:36.578Z,17.66
2023-01-12T12:09:13.311Z,17.64
2023-01-12T12:12:01.776Z,17.56
2023-01-12T12:14:49.610Z,17.54
2023-01-12T12:17:55.069Z,17.56
2023-01-12T12:21:01.978Z,17.52
2023-01-12T12:24:11.857Z,17.47
2023-01-12T12:27:06.077Z,17.45
2023-01-12T12:30:00.493Z,17.43
2023-01-12T12:32:39.695Z,17.42
2023-01-12T12:35:54.331Z,17.43
2023-01-12T12:38:52.201Z,17.32
2023-01-12T12:42:16.884Z,17.41
2023-01-12T12:45:08.979Z,17.33
2023-01-12T12:48:01.689Z,17.35
2023-01-12T12:50:51.012Z,17.33
2023-01-12T12:53:38.575Z,17.28
2023-01-12T12:56:13.575Z,17.23
2023-01-12T12:58:47.361Z,17.26
2023-01-12T13:01:24.875Z,17.30
2023-01-12T13:04:01.780Z,17.20
2023-01-12T13:06:46.632Z,17.15
2023-01-12T13:09:17.835Z,17.15
2023-01-12T13:12:01.665Z,17.13
2023-01-12T13:14:43.882Z,17.05
2023-01-12T13:17:21.886Z,17.02
2023-01-12T13:20:24.192Z,16.97
2023-01-12T13:22:58.040Z,16.89
2023-01-12T13:25:30.981Z,16.96
2023-01-12T13:28:02.169Z,16.90
2023-01-12T13:30:33.139Z,16.91
2023-01-12T13:33:24.776Z,16.87
2023-01-12T13:35:55.977Z,16.84
2023-01-12T13:38:38.905Z,16.81
2023-01-12T13:41:44.827Z,16.73
2023-01-12T13:44:22.876Z,16.76
2023-01-12T13:46:58.961Z,16.73
2023-01-12T13:49:35.816Z,16.79
2023-01-12T13:52:31.191Z,16.87
2023-01-12T13:55:02.831Z,16.81
2023-01-12T13:57:34.234Z,16.81
2023-01-12T14:00:12.685Z,16.82
2023-01-12T14:02:44.028Z,16.81
2023-01-12T14:05:30.275Z,16.76
2023-01-12T14:08:26.210Z,16.78
2023-01-12T14:11:23.065Z,16.85
2023-01-12T14:14:28.535Z,16.87
2023-01-12T14:17:17.939Z,16.83
2023-01-12T14:19:53.192Z,16.83
2023-01-12T14:22:24.911Z,16.74
2023-01-12T14:24:56.206Z,16.69
2023-01-12T14:27:28.471Z,16.68
2023-01-12T14:29:59.412Z,16.62
2023-01-12T14:32:30.353Z,16.51
2023-01-12T14:35:01.711Z,16.50
2023-01-12T14:37:36.094Z,16.39
2023-01-12T14:40:08.150Z,16.39
2023-01-12T14:42:56.940Z,16.47
2023-01-12T14:45:47.765Z,16.36
2023-01-12T14:48:30.510Z,16.32
2023-01-12T14:51:06.452Z,16.34
2023-01-12T14:53:41.704Z,16.35
2023-01-12T14:56:27.841Z,16.32
2023-01-12T14:59:26.132Z,16.28
2023-01-12T15:02:17.060Z,16.12
2023-01-12T15:05:19.985Z,15.99
2023-01-12T15:08:10.134Z,15.99
2023-01-12T15:10:44.826Z,15.99
2023-01-12T15:13:35.696Z,15.99
2023-01-12T15:16:25.779Z,15.89
2023-01-12T15:19:14.988Z,15.95
2023-01-12T15:22:06.317Z,15.94
2023-01-12T15:24:56.176Z,15.90
2023-01-12T15:27:28.084Z,15.86
2023-01-12T15:29:59.639Z,15.85
2023-01-12T15:32:48.493Z,15.85
2023-01-12T15:35:25.192Z,15.75
2023-01-12T15:37:58.348Z,15.78
2023-01-12T15:40:31.355Z,15.76
2023-01-12T15:43:06.167Z,15.69
2023-01-12T15:45:42.249Z,15.72
2023-01-12T15:48:14.500Z,15.66
2023-01-12T15:50:47.426Z,15.56
2023-01-12T15:53:24.038Z,15.69
2023-01-12T15:55:55.003Z,15.51
2023-01-12T15:58:26.018Z,15.55
2023-01-12T16:00:57.292Z,15.53
2023-01-12T16:03:54.923Z,15.55
2023-01-12T16:06:19.653Z,15.50
2023-01-12T16:08:50.748Z,15.46
2023-01-12T16:11:25.691Z,15.47
2023-01-12T16:13:57.292Z,15.51
2023-01-12T16:16:29.933Z,15.47
2023-01-12T16:19:01.273Z,15.42
2023-01-12T16:21:32.014Z,15.48
2023-01-12T16:24:04.248Z,15.51
2023-01-12T16:26:35.412Z,15.40
2023-01-12T16:29:06.679Z,15.49
2023-01-12T16:31:39.379Z,15.38
2023-01-12T16:34:10.384Z,15.40
2023-01-12T16:36:41.764Z,15.44
2023-01-12T16:39:14.871Z,15.29
2023-01-12T16:41:46.217Z,15.36
2023-01-12T16:44:17.460Z,15.32
2023-01-12T16:46:50.166Z,15.17
2023-01-12T16:49:21.669Z,15.25
2023-01-12T16:51:52.796Z,15.19
2023-01-12T16:54:23.970Z,15.25
2023-01-12T16:56:55.374Z,15.27
2023-01-12T16:59:26.840Z,15.11
2023-01-12T17:01:58.174Z,15.18
2023-01-12T17:04:29.627Z,15.21
2023-01-12T17:07:00.914Z,15.22
2023-01-12T17:09:32.093Z,15.23
2023-01-12T17:12:04.326Z,15.17
2023-01-12T17:14:36.392Z,15.17
2023-01-12T17:17:10.935Z,15.23
2023-01-12T17:19:46.286Z,15.24
2023-01-12T17:22:17.599Z,15.21
2023-01-12T17:24:48.767Z,15.28
2023-01-12T17:27:21.580Z,15.25
2023-01-12T17:29:53.458Z,15.23
2023-01-12T17:32:24.668Z,15.30
2023-01-12T17:34:55.849Z,15.35
2023-01-12T17:37:27.132Z,15.43
2023-01-12T17:39:58.412Z,15.38
2023-01-12T17:42:47.339Z,15.43
2023-01-12T17:45:18.647Z,15.42
2023-01-12T17:47:49.709Z,15.26
2023-01-12T17:50:20.840Z,15.37
2023-01-12T17:52:52.456Z,15.55
2023-01-12T17:55:23.571Z,15.56
2023-01-12T17:57:54.603Z,15.70
2023-01-12T18:00:26.011Z,15.71
2023-01-12T18:02:56.986Z,15.67
2023-01-12T18:05:29.606Z,15.70
2023-01-12T18:08:00.634Z,15.83
2023-01-12T18:10:31.943Z,15.96
2023-01-12T18:13:03.154Z,16.02
2023-01-12T18:15:34.783Z,16.13
2023-01-12T18:18:05.813Z,16.18
2023-01-12T18:20:36.797Z,16.24
2023-01-12T18:23:07.879Z,16.36
2023-01-12T18:25:41.823Z,16.45
2023-01-12T18:28:13.322Z,16.46
2023-01-12T18:30:44.306Z,16.59
2023-01-12T18:33:15.549Z,16.50
2023-01-12T18:35:46.739Z,16.59
2023-01-12T18:38:17.881Z,16.82
2023-01-12T18:41:08.993Z,16.82
2023-01-12T18:43:41.851Z,16.84
2023-01-12T18:46:19.374Z,17.17
2023-01-12T18:48:50.734Z,17.22
2023-01-12T18:51:39.897Z,17.13
2023-01-12T18:54:13.645Z,17.29
2023-01-12T18:56:48.608Z,17.67
2023-01-12T18:59:19.783Z,17.86
2023-01-12T19:01:51.043Z,17.88
2023-01-12T19:04:32.459Z,17.92
2023-01-12T19:07:03.613Z,18.35
2023-01-12T19:09:37.457Z,18.74
2023-01-12T19:12:08.901Z,18.84
2023-01-12T19:14:57.479Z,18.65
2023-01-12T19:17:28.493Z,18.27
2023-01-12T19:20:01.689Z,18.53
2023-01-12T19:22:51.868Z,18.81
2023-01-12T19:25:43.259Z,19.07
2023-01-12T19:28:37.040Z,19.22
2023-01-12T19:31:13.666Z,19.72
2023-01-12T19:33:45.034Z,19.72
2023-01-12T19:36:17.669Z,19.72
2023-01-12T19:38:50.887Z,19.80
2023-01-12T19:41:39.858Z,19.88
2023-01-12T19:44:10.881Z,19.86
2023-01-12T19:46:41.989Z,20.11
2023-01-12T19:49:14.746Z,20.31
2023-01-12T19:51:47.551Z,20.27
2023-01-12T19:54:18.548Z,20.20
2023-01-12T19:56:49.720Z,20.31
2023-01-12T19:59:20.803Z,20.68
2023-01-12T20:01:52.192Z,21.21
2023-01-12T20:04:22.876Z,20.66
2023-01-12T20:06:54.643Z,20.62
2023-01-12T20:09:26.011Z,20.81
2023-01-12T20:11:56.894Z,21.05
2023-01-12T20:14:27.819Z,21.27
2023-01-12T20:16:59.025Z,21.44
2023-01-12T20:19:29.732Z,21.66
2023-01-12T20:22:00.815Z,21.70
2023-01-12T20:24:32.194Z,21.43
2023-01-12T20:27:03.497Z,21.84
2023-01-12T20:29:35.374Z,21.89
2023-01-12T20:32:06.399Z,21.70
2023-01-12T20:34:37.179Z,21.77
2023-01-12T20:37:08.174Z,21.87
2023-01-12T20:39:39.533Z,22.40
2023-01-12T20:42:11.255Z,22.28
2023-01-12T20:44:41.870Z,22.16
2023-01-12T20:47:12.843Z,22.82
2023-01-12T20:49:44.100Z,22.80
2023-01-12T20:52:15.254Z,23.22
2023-01-12T20:54:46.303Z,22.60
2023-01-12T20:57:17.524Z,22.96
2023-01-12T20:59:49.914Z,23.25
2023-01-12T21:02:24.459Z,22.94
2023-01-12T21:04:55.730Z,23.26
2023-01-12T21:07:26.420Z,23.43
2023-01-12T21:09:57.483Z,23.40
2023-01-12T21:12:28.677Z,23.05
2023-01-12T21:14:59.980Z,23.38
2023-01-12T21:17:32.529Z,23.81
2023-01-12T21:20:03.673Z,23.81
2023-01-12T21:22:34.649Z,24.02
2023-01-12T21:25:06.556Z,24.02
2023-01-12T21:27:37.924Z,23.07
2023-01-12T21:30:10.529Z,23.42
2023-01-12T21:32:44.253Z,23.20
2023-01-12T21:35:16.231Z,23.94
2023-01-12T21:37:47.539Z,24.11
2023-01-12T21:40:19.147Z,24.00
2023-01-12T21:43:07.979Z,23.86
2023-01-12T21:45:43.223Z,24.93
2023-01-12T21:48:15.765Z,24.19
2023-01-12T21:50:47.220Z,24.69
2023-01-12T21:53:20.840Z,25.17
2023-01-12T21:56:02.396Z,25.24
2023-01-12T21:58:35.611Z,25.44
2023-01-12T22:01:16.825Z,25.71
2023-01-12T22:03:47.828Z,25.38
2023-01-12T22:06:18.990Z,25.53
2023-01-12T22:08:49.934Z,26.18
2023-01-12T22:11:20.836Z,25.97
2023-01-12T22:13:51.867Z,26.24
2023-01-12T22:16:23.179Z,25.77
2023-01-12T22:18:53.857Z,26.41
2023-01-12T22:21:28.189Z,25.78
2023-01-12T22:23:59.230Z,26.08
2023-01-12T22:26:31.915Z,25.23
2023-01-12T22:29:03.071Z,26.20
2023-01-12T22:31:35.450Z,26.57
2023-01-12T22:34:07.974Z,26.05
2023-01-12T22:36:44.199Z,26.24
2023-01-12T22:39:15.502Z,26.41
2023-01-12T22:41:46.891Z,26.58
2023-01-12T22:44:18.167Z,25.70
2023-01-12T22:46:48.662Z,26.65
2023-01-12T22:49:19.804Z,26.66
2023-01-12T22:51:50.921Z,26.92
2023-01-12T22:54:22.011Z,26.34
2023-01-12T22:56:52.887Z,26.94
2023-01-12T22:59:24.007Z,25.65
2023-01-12T23:01:55.912Z,27.11
2023-01-12T23:04:27.232Z,27.37
2023-01-12T23:06:58.265Z,27.59
2023-01-12T23:09:29.164Z,27.41
2023-01-12T23:11:59.826Z,26.03
2023-01-12T23:14:31.911Z,25.66
2023-01-12T23:17:02.987Z,25.50
2023-01-12T23:19:34.262Z,25.04
2023-01-12T23:22:05.241Z,25.75
2023-01-12T23:24:36.222Z,24.77
2023-01-12T23:27:07.652Z,26.17
2023-01-12T23:29:38.541Z,26.18
2023-01-12T23:32:10.007Z,26.20
2023-01-12T23:34:40.963Z,25.52
2023-01-12T23:37:11.846Z,25.66
2023-01-12T23:39:46.097Z,25.33
2023-01-12T23:42:16.963Z,26.26
2023-01-12T23:44:48.356Z,26.15
2023-01-12T23:47:20.518Z,25.64
2023-01-12T23:49:51.800Z,25.24
2023-01-12T23:52:23.067Z,25.35
2023-01-12T23:54:57.111Z,26.92
2023-01-12T23:57:30.245Z,28.01
